Terminal Aerodrome Forecast
Issued by NWS San Angelo, TX

Home | Current Version | Previous Version | Text Only | Print | Product List | Glossary On
Versions: 1 2 3 4 5 6 7 8 9 10 11 12 13 14 15 16
000
FTUS44 KSJT 291300 AAA
TAFABI
TAF AMD
KABI 291359Z 2914/3012 21014G21KT P6SM SKC
     FM291800 23012G19KT P6SM SKC
     FM292200 35011KT P6SM FEW250
     FM300000 36015G23KT P6SM SCT250
     FM300600 36008KT P6SM SCT250=

USA.gov is the U.S. government's official web portal to all federal, state and local government web resources and services.